hindishows.com alexa rank chart, hindishows.com alexa rank daily changes

hindishows.com alexa rank chart, hindishows.com alexa rank daily changes

hindishows.com
Actual rank:
539 172

RANK HISTORY

Date Rank Diff
2017/05/23 539 172 +16 895
2017/05/22 522 277 -5 760
2017/05/21 528 037 -841
2017/05/20 528 878 +4 526
2017/05/19 524 352 -2 668
2017/05/18 527 020 -6 511
2017/05/17 533 531 -2 071
2017/05/16 535 602 -4 465
2017/05/15 540 067 -25 156
2017/05/14 565 223 -12 575
2017/05/13 577 798 +31 227
2017/05/12 546 571 -1 877
2017/05/11 548 448 +6 731
2017/05/10 541 717 +20 079
2017/05/09 521 638 -18 934
2017/05/08 540 572 +3 956
2017/05/07 536 616 -3 120
2017/05/06 539 736 -3 113
2017/05/05 542 849 +17 840
2017/05/04 525 009 +12 668
2017/05/03 512 341 +3 907
2017/05/02 508 434 -12 838
2017/05/01 521 272 -28 821
2017/04/30 550 093 +1 213
2017/04/29 548 880 +11 487
2017/04/28 537 393 +462
2017/04/27 536 931 -6 083
2017/04/26 543 014 -19 917
2017/04/25 562 931 -2 872
2017/04/24 565 803 +8 362
2017/04/23 557 441 -17 824
2017/04/22 575 265 -5 656
2017/04/21 580 921 -11 788
2017/04/20 592 709 +8 059
2017/04/19 584 650 -5 016
2017/04/18 589 666 +1 088
2017/04/17 588 578 +5 191
2017/04/16 583 387 -9 389
2017/04/15 592 776 +20 608
2017/04/14 572 168 +14 140
2017/04/13 558 028 -15 931
2017/04/12 573 959 +10 728
2017/04/11 563 231 -3 144
2017/04/10 566 375 -18 985
2017/04/09 585 360 +18 464
2017/04/08 566 896 -9 640
2017/04/07 576 536 -8 300
2017/04/06 584 836 +10 061
2017/04/05 574 775 -7 242
2017/04/04 582 017 +5 161
2017/04/03 576 856 +30
2017/04/02 576 826 +10 968
2017/04/01 565 858 +7 233
2017/03/31 558 625 +9 972
2017/03/30 548 653 -2 336
2017/03/29 550 989 -7 903
2017/03/28 558 892 -25 594
2017/03/27 584 486 -17 002
2017/03/26 601 488 +18 097
2017/03/25 583 391 -9 979
2017/03/24 593 370

WIDGET FOR YOUR SITE

DOMAINS WITH THE NEAREST RANK

Domain Rank
webodyboard.com 539 167
khatrimaza.club 539 168
ptc-gps-portal.de 539 169
kj-agrijahad.ir 539 170
satylilly.sk 539 171
hindishows.com 539 172
gustavjorgensonauthor.wordpress.com 539 173
eatingrules.com 539 174
foodswinesfromspain.com 539 175
starofservice.pl 539 176
projectsinnetworking.com 539 177

DOMAINS WITH THE NEAREST RANK BY TLD .com

Domain Rank
bluepearlvet.com 539 160
magkadin.com 539 162
poweredtemplates.com 539 164
abbyson.com 539 166
webodyboard.com 539 167
hindishows.com 539 172
eatingrules.com 539 174
foodswinesfromspain.com 539 175
projectsinnetworking.com 539 177
highlander-outdoor.com 539 178
carlosruizzafon.com 539 180